sensor_id;sensor_type;location;lat;lon;timestamp;P1;durP1;ratioP1;P2;durP2;ratioP2
17614;SDS011;8926;49.720;6.576;2022-12-05T00:01:12;5.67;;;5.17;;
17614;SDS011;8926;49.720;6.576;2022-12-05T00:03:37;4.70;;;4.30;;
17614;SDS011;8926;49.720;6.576;2022-12-05T00:06:03;4.80;;;4.40;;
17614;SDS011;8926;49.720;6.576;2022-12-05T00:08:28;5.37;;;4.87;;
17614;SDS011;8926;49.720;6.576;2022-12-05T00:10:54;4.47;;;4.07;;
17614;SDS011;8926;49.720;6.576;2022-12-05T00:13:19;5.43;;;4.93;;
17614;SDS011;8926;49.720;6.576;2022-12-05T00:15:44;5.03;;;4.63;;
17614;SDS011;8926;49.720;6.576;2022-12-05T00:18:10;5.20;;;4.73;;
17614;SDS011;8926;49.720;6.576;2022-12-05T00:20:35;4.10;;;3.80;;
17614;SDS011;8926;49.720;6.576;2022-12-05T00:23:00;4.73;;;4.23;;
17614;SDS011;8926;49.720;6.576;2022-12-05T00:25:26;6.33;;;5.73;;
17614;SDS011;8926;49.720;6.576;2022-12-05T00:27:51;5.50;;;5.00;;
17614;SDS011;8926;49.720;6.576;2022-12-05T00:30:17;5.53;;;5.13;;
17614;SDS011;8926;49.720;6.576;2022-12-05T00:32:42;5.33;;;4.93;;
17614;SDS011;8926;49.720;6.576;2022-12-05T00:35:07;6.20;;;5.70;;
17614;SDS011;8926;49.720;6.576;2022-12-05T00:37:33;6.13;;;5.53;;
17614;SDS011;8926;49.720;6.576;2022-12-05T00:39:58;6.53;;;6.00;;
17614;SDS011;8926;49.720;6.576;2022-12-05T00:42:23;6.13;;;5.53;;
17614;SDS011;8926;49.720;6.576;2022-12-05T00:44:49;5.47;;;5.00;;
17614;SDS011;8926;49.720;6.576;2022-12-05T00:47:14;5.50;;;5.00;;
17614;SDS011;8926;49.720;6.576;2022-12-05T00:49:40;5.73;;;5.30;;
17614;SDS011;8926;49.720;6.576;2022-12-05T00:52:05;5.67;;;5.17;;
17614;SDS011;8926;49.720;6.576;2022-12-05T00:54:30;5.77;;;5.37;;
17614;SDS011;8926;49.720;6.576;2022-12-05T00:56:56;6.40;;;5.83;;
17614;SDS011;8926;49.720;6.576;2022-12-05T00:59:21;6.50;;;5.90;;
17614;SDS011;8926;49.720;6.576;2022-12-05T01:01:48;5.33;;;4.93;;
17614;SDS011;8926;49.720;6.576;2022-12-05T01:04:23;5.43;;;4.93;;
17614;SDS011;8926;49.720;6.576;2022-12-05T01:06:49;5.60;;;5.10;;
17614;SDS011;8926;49.720;6.576;2022-12-05T01:09:18;4.83;;;4.43;;
17614;SDS011;8926;49.720;6.576;2022-12-05T01:11:44;4.63;;;4.33;;
17614;SDS011;8926;49.720;6.576;2022-12-05T01:14:10;4.90;;;4.50;;
17614;SDS011;8926;49.720;6.576;2022-12-05T01:16:38;5.27;;;4.87;;
17614;SDS011;8926;49.720;6.576;2022-12-05T01:19:07;5.13;;;4.73;;
17614;SDS011;8926;49.720;6.576;2022-12-05T01:21:35;4.80;;;4.40;;
17614;SDS011;8926;49.720;6.576;2022-12-05T01:24:01;5.13;;;4.73;;
17614;SDS011;8926;49.720;6.576;2022-12-05T01:26:26;5.37;;;4.97;;
17614;SDS011;8926;49.720;6.576;2022-12-05T01:28:52;5.17;;;4.77;;
17614;SDS011;8926;49.720;6.576;2022-12-05T01:31:20;5.27;;;4.87;;
17614;SDS011;8926;49.720;6.576;2022-12-05T01:33:48;5.63;;;5.03;;
17614;SDS011;8926;49.720;6.576;2022-12-05T01:36:14;5.67;;;5.17;;
17614;SDS011;8926;49.720;6.576;2022-12-05T01:38:40;5.63;;;5.13;;
17614;SDS011;8926;49.720;6.576;2022-12-05T01:41:06;7.33;;;6.63;;
17614;SDS011;8926;49.720;6.576;2022-12-05T01:46:22;5.60;;;5.20;;
17614;SDS011;8926;49.720;6.576;2022-12-05T01:48:48;6.23;;;5.63;;
17614;SDS011;8926;49.720;6.576;2022-12-05T01:51:16;5.57;;;5.17;;
17614;SDS011;8926;49.720;6.576;2022-12-05T01:53:42;5.20;;;4.80;;
17614;SDS011;8926;49.720;6.576;2022-12-05T01:56:07;4.90;;;4.40;;
17614;SDS011;8926;49.720;6.576;2022-12-05T01:58:34;4.90;;;4.50;;
17614;SDS011;8926;49.720;6.576;2022-12-05T02:01:02;5.47;;;4.97;;
17614;SDS011;8926;49.720;6.576;2022-12-05T02:03:27;5.87;;;5.37;;
17614;SDS011;8926;49.720;6.576;2022-12-05T02:05:53;5.00;;;4.60;;
17614;SDS011;8926;49.720;6.576;2022-12-05T02:08:21;4.57;;;4.27;;
17614;SDS011;8926;49.720;6.576;2022-12-05T02:10:50;5.07;;;4.67;;
17614;SDS011;8926;49.720;6.576;2022-12-05T02:16:10;4.90;;;4.50;;
17614;SDS011;8926;49.720;6.576;2022-12-05T02:21:44;4.30;;;4.00;;
17614;SDS011;8926;49.720;6.576;2022-12-05T02:30:12;5.23;;;4.77;;
17614;SDS011;8926;49.720;6.576;2022-12-05T02:41:35;4.33;;;4.03;;
17614;SDS011;8926;49.720;6.576;2022-12-05T02:44:05;5.07;;;4.67;;
17614;SDS011;8926;49.720;6.576;2022-12-05T02:46:37;5.30;;;4.87;;
17614;SDS011;8926;49.720;6.576;2022-12-05T02:49:10;4.87;;;4.47;;
17614;SDS011;8926;49.720;6.576;2022-12-05T02:51:42;5.27;;;4.77;;
17614;SDS011;8926;49.720;6.576;2022-12-05T02:54:12;5.47;;;5.03;;
17614;SDS011;8926;49.720;6.576;2022-12-05T02:56:41;5.00;;;4.60;;
17614;SDS011;8926;49.720;6.576;2022-12-05T02:59:08;5.00;;;4.60;;
17614;SDS011;8926;49.720;6.576;2022-12-05T03:01:34;4.77;;;4.37;;
17614;SDS011;8926;49.720;6.576;2022-12-05T03:04:00;4.67;;;4.27;;
17614;SDS011;8926;49.720;6.576;2022-12-05T03:06:40;4.33;;;4.03;;
17614;SDS011;8926;49.720;6.576;2022-12-05T03:09:12;5.07;;;4.67;;
17614;SDS011;8926;49.720;6.576;2022-12-05T03:11:44;4.87;;;4.47;;
17614;SDS011;8926;49.720;6.576;2022-12-05T03:14:17;5.43;;;5.03;;
17614;SDS011;8926;49.720;6.576;2022-12-05T03:16:48;5.40;;;4.90;;
17614;SDS011;8926;49.720;6.576;2022-12-05T03:22:12;4.87;;;4.47;;
17614;SDS011;8926;49.720;6.576;2022-12-05T03:24:44;5.10;;;4.70;;
17614;SDS011;8926;49.720;6.576;2022-12-05T03:27:15;4.57;;;4.17;;
17614;SDS011;8926;49.720;6.576;2022-12-05T03:30:08;4.83;;;4.43;;
17614;SDS011;8926;49.720;6.576;2022-12-05T03:32:38;4.33;;;4.03;;
17614;SDS011;8926;49.720;6.576;2022-12-05T03:40:39;4.50;;;4.20;;
17614;SDS011;8926;49.720;6.576;2022-12-05T03:45:51;4.80;;;4.40;;
17614;SDS011;8926;49.720;6.576;2022-12-05T03:48:40;4.17;;;3.90;;
17614;SDS011;8926;49.720;6.576;2022-12-05T03:51:16;3.87;;;3.57;;
17614;SDS011;8926;49.720;6.576;2022-12-05T03:54:28;3.90;;;3.60;;
17614;SDS011;8926;49.720;6.576;2022-12-05T03:56:42;4.37;;;4.07;;
17614;SDS011;8926;49.720;6.576;2022-12-05T03:59:19;5.23;;;4.80;;
17614;SDS011;8926;49.720;6.576;2022-12-05T04:01:51;4.70;;;4.30;;
17614;SDS011;8926;49.720;6.576;2022-12-05T04:04:21;4.93;;;4.53;;
17614;SDS011;8926;49.720;6.576;2022-12-05T04:06:57;4.70;;;4.30;;
17614;SDS011;8926;49.720;6.576;2022-12-05T04:09:33;5.30;;;4.90;;
17614;SDS011;8926;49.720;6.576;2022-12-05T04:12:09;4.87;;;4.47;;
17614;SDS011;8926;49.720;6.576;2022-12-05T04:14:40;4.80;;;4.40;;
17614;SDS011;8926;49.720;6.576;2022-12-05T04:17:15;5.07;;;4.67;;
17614;SDS011;8926;49.720;6.576;2022-12-05T04:19:58;4.47;;;4.07;;
17614;SDS011;8926;49.720;6.576;2022-12-05T04:22:45;4.53;;;4.13;;
17614;SDS011;8926;49.720;6.576;2022-12-05T04:25:11;4.40;;;4.10;;
17614;SDS011;8926;49.720;6.576;2022-12-05T04:36:02;4.47;;;4.07;;
17614;SDS011;8926;49.720;6.576;2022-12-05T04:38:32;5.90;;;5.50;;
17614;SDS011;8926;49.720;6.576;2022-12-05T04:41:03;5.70;;;5.30;;
17614;SDS011;8926;49.720;6.576;2022-12-05T04:43:34;5.63;;;5.17;;
17614;SDS011;8926;49.720;6.576;2022-12-05T04:46:03;4.93;;;4.53;;
17614;SDS011;8926;49.720;6.576;2022-12-05T04:48:32;4.13;;;3.83;;
17614;SDS011;8926;49.720;6.576;2022-12-05T04:51:00;4.63;;;4.23;;
17614;SDS011;8926;49.720;6.576;2022-12-05T04:53:28;4.53;;;4.23;;
17614;SDS011;8926;49.720;6.576;2022-12-05T04:55:56;4.33;;;3.93;;
17614;SDS011;8926;49.720;6.576;2022-12-05T04:58:24;4.70;;;4.30;;
17614;SDS011;8926;49.720;6.576;2022-12-05T05:01:06;4.37;;;4.07;;
17614;SDS011;8926;49.720;6.576;2022-12-05T05:03:47;4.20;;;3.90;;
17614;SDS011;8926;49.720;6.576;2022-12-05T05:06:18;4.10;;;3.80;;
17614;SDS011;8926;49.720;6.576;2022-12-05T05:08:47;4.37;;;3.97;;
17614;SDS011;8926;49.720;6.576;2022-12-05T05:11:21;4.07;;;3.77;;
17614;SDS011;8926;49.720;6.576;2022-12-05T05:13:48;4.10;;;3.80;;
17614;SDS011;8926;49.720;6.576;2022-12-05T05:16:15;3.83;;;3.53;;
17614;SDS011;8926;49.720;6.576;2022-12-05T05:18:47;3.77;;;3.53;;
17614;SDS011;8926;49.720;6.576;2022-12-05T05:21:22;4.07;;;3.77;;
17614;SDS011;8926;49.720;6.576;2022-12-05T05:23:47;4.67;;;4.27;;
17614;SDS011;8926;49.720;6.576;2022-12-05T05:26:13;3.93;;;3.63;;
17614;SDS011;8926;49.720;6.576;2022-12-05T05:28:38;4.30;;;4.00;;
17614;SDS011;8926;49.720;6.576;2022-12-05T05:31:04;4.97;;;4.57;;
17614;SDS011;8926;49.720;6.576;2022-12-05T05:33:30;4.43;;;4.10;;
17614;SDS011;8926;49.720;6.576;2022-12-05T05:35:56;4.90;;;4.50;;
17614;SDS011;8926;49.720;6.576;2022-12-05T05:38:25;4.13;;;3.83;;
17614;SDS011;8926;49.720;6.576;2022-12-05T05:40:50;4.47;;;4.07;;
17614;SDS011;8926;49.720;6.576;2022-12-05T05:43:15;7.87;;;7.33;;
17614;SDS011;8926;49.720;6.576;2022-12-05T05:45:41;7.60;;;7.10;;
17614;SDS011;8926;49.720;6.576;2022-12-05T05:48:06;5.97;;;5.57;;
17614;SDS011;8926;49.720;6.576;2022-12-05T05:50:31;4.83;;;4.53;;
17614;SDS011;8926;49.720;6.576;2022-12-05T05:52:56;5.23;;;4.83;;
17614;SDS011;8926;49.720;6.576;2022-12-05T05:55:22;5.50;;;5.00;;
17614;SDS011;8926;49.720;6.576;2022-12-05T05:57:47;4.30;;;4.00;;
17614;SDS011;8926;49.720;6.576;2022-12-05T06:00:13;4.63;;;4.23;;
17614;SDS011;8926;49.720;6.576;2022-12-05T06:02:38;3.93;;;3.63;;
17614;SDS011;8926;49.720;6.576;2022-12-05T06:05:04;4.20;;;3.90;;
17614;SDS011;8926;49.720;6.576;2022-12-05T06:07:29;3.80;;;3.60;;
17614;SDS011;8926;49.720;6.576;2022-12-05T06:09:55;4.57;;;4.27;;
17614;SDS011;8926;49.720;6.576;2022-12-05T06:12:20;3.83;;;3.53;;
17614;SDS011;8926;49.720;6.576;2022-12-05T06:14:47;3.70;;;3.43;;
17614;SDS011;8926;49.720;6.576;2022-12-05T06:17:13;4.10;;;3.80;;
17614;SDS011;8926;49.720;6.576;2022-12-05T06:19:38;3.87;;;3.57;;
17614;SDS011;8926;49.720;6.576;2022-12-05T06:22:03;4.60;;;4.20;;
17614;SDS011;8926;49.720;6.576;2022-12-05T06:24:29;4.03;;;3.73;;
17614;SDS011;8926;49.720;6.576;2022-12-05T06:26:54;4.33;;;4.03;;
17614;SDS011;8926;49.720;6.576;2022-12-05T06:29:19;3.50;;;3.23;;
17614;SDS011;8926;49.720;6.576;2022-12-05T06:31:44;4.10;;;3.80;;
17614;SDS011;8926;49.720;6.576;2022-12-05T06:34:10;5.00;;;4.60;;
17614;SDS011;8926;49.720;6.576;2022-12-05T06:36:35;4.40;;;4.10;;
17614;SDS011;8926;49.720;6.576;2022-12-05T06:39:00;3.90;;;3.60;;
17614;SDS011;8926;49.720;6.576;2022-12-05T06:41:26;4.10;;;3.80;;
17614;SDS011;8926;49.720;6.576;2022-12-05T06:43:55;4.20;;;3.90;;
17614;SDS011;8926;49.720;6.576;2022-12-05T06:46:22;3.93;;;3.63;;
17614;SDS011;8926;49.720;6.576;2022-12-05T06:48:51;3.40;;;3.20;;
17614;SDS011;8926;49.720;6.576;2022-12-05T06:51:17;4.30;;;4.00;;
17614;SDS011;8926;49.720;6.576;2022-12-05T06:53:42;3.87;;;3.57;;
17614;SDS011;8926;49.720;6.576;2022-12-05T06:56:09;4.87;;;4.47;;
17614;SDS011;8926;49.720;6.576;2022-12-05T06:58:37;4.50;;;4.20;;
17614;SDS011;8926;49.720;6.576;2022-12-05T07:01:03;3.53;;;3.23;;
17614;SDS011;8926;49.720;6.576;2022-12-05T07:03:47;3.70;;;3.50;;
17614;SDS011;8926;49.720;6.576;2022-12-05T07:06:13;3.90;;;3.60;;
17614;SDS011;8926;49.720;6.576;2022-12-05T07:08:39;3.97;;;3.67;;
17614;SDS011;8926;49.720;6.576;2022-12-05T07:11:05;3.70;;;3.40;;
17614;SDS011;8926;49.720;6.576;2022-12-05T07:13:31;4.07;;;3.77;;
17614;SDS011;8926;49.720;6.576;2022-12-05T07:15:56;4.27;;;3.97;;
17614;SDS011;8926;49.720;6.576;2022-12-05T07:18:25;4.03;;;3.73;;
17614;SDS011;8926;49.720;6.576;2022-12-05T07:20:54;4.60;;;4.30;;
17614;SDS011;8926;49.720;6.576;2022-12-05T07:23:24;4.30;;;4.00;;
17614;SDS011;8926;49.720;6.576;2022-12-05T07:25:49;4.97;;;4.57;;
17614;SDS011;8926;49.720;6.576;2022-12-05T07:28:14;4.00;;;3.70;;
17614;SDS011;8926;49.720;6.576;2022-12-05T07:30:39;5.53;;;5.13;;
17614;SDS011;8926;49.720;6.576;2022-12-05T07:33:05;7.53;;;6.93;;
17614;SDS011;8926;49.720;6.576;2022-12-05T07:35:30;7.50;;;6.90;;
17614;SDS011;8926;49.720;6.576;2022-12-05T07:37:55;7.13;;;6.53;;
17614;SDS011;8926;49.720;6.576;2022-12-05T07:40:21;5.83;;;5.43;;
17614;SDS011;8926;49.720;6.576;2022-12-05T07:42:49;4.47;;;4.17;;
17614;SDS011;8926;49.720;6.576;2022-12-05T07:45:14;4.77;;;4.47;;
17614;SDS011;8926;49.720;6.576;2022-12-05T07:47:40;5.60;;;5.10;;
17614;SDS011;8926;49.720;6.576;2022-12-05T07:50:05;4.70;;;4.30;;
17614;SDS011;8926;49.720;6.576;2022-12-05T07:52:31;4.27;;;3.97;;
17614;SDS011;8926;49.720;6.576;2022-12-05T07:54:56;4.50;;;4.20;;
17614;SDS011;8926;49.720;6.576;2022-12-05T07:57:22;4.00;;;3.70;;
17614;SDS011;8926;49.720;6.576;2022-12-05T07:59:47;4.10;;;3.80;;
17614;SDS011;8926;49.720;6.576;2022-12-05T08:02:13;4.50;;;4.10;;
17614;SDS011;8926;49.720;6.576;2022-12-05T08:04:38;4.20;;;3.90;;
17614;SDS011;8926;49.720;6.576;2022-12-05T08:07:03;5.27;;;4.87;;
17614;SDS011;8926;49.720;6.576;2022-12-05T08:09:29;4.63;;;4.23;;
17614;SDS011;8926;49.720;6.576;2022-12-05T08:11:54;5.13;;;4.73;;
17614;SDS011;8926;49.720;6.576;2022-12-05T08:14:19;5.37;;;4.97;;
17614;SDS011;8926;49.720;6.576;2022-12-05T08:16:45;5.60;;;5.17;;
17614;SDS011;8926;49.720;6.576;2022-12-05T08:19:11;5.30;;;4.90;;
17614;SDS011;8926;49.720;6.576;2022-12-05T08:21:41;5.23;;;4.83;;
17614;SDS011;8926;49.720;6.576;2022-12-05T08:24:06;4.73;;;4.33;;
17614;SDS011;8926;49.720;6.576;2022-12-05T08:26:33;5.00;;;4.60;;
17614;SDS011;8926;49.720;6.576;2022-12-05T08:29:01;4.40;;;4.10;;
17614;SDS011;8926;49.720;6.576;2022-12-05T08:31:29;4.87;;;4.47;;
17614;SDS011;8926;49.720;6.576;2022-12-05T08:33:57;5.60;;;5.10;;
17614;SDS011;8926;49.720;6.576;2022-12-05T08:36:24;5.63;;;5.13;;
17614;SDS011;8926;49.720;6.576;2022-12-05T08:38:54;5.67;;;5.17;;
17614;SDS011;8926;49.720;6.576;2022-12-05T08:41:20;4.97;;;4.57;;
17614;SDS011;8926;49.720;6.576;2022-12-05T08:43:45;4.90;;;4.50;;
17614;SDS011;8926;49.720;6.576;2022-12-05T08:46:11;5.33;;;4.93;;
17614;SDS011;8926;49.720;6.576;2022-12-05T08:48:36;5.90;;;5.50;;
17614;SDS011;8926;49.720;6.576;2022-12-05T08:51:06;4.97;;;4.67;;
17614;SDS011;8926;49.720;6.576;2022-12-05T08:53:33;5.13;;;4.73;;
17614;SDS011;8926;49.720;6.576;2022-12-05T08:56:02;7.10;;;6.40;;
17614;SDS011;8926;49.720;6.576;2022-12-05T08:58:30;10.87;;;8.57;;
17614;SDS011;8926;49.720;6.576;2022-12-05T09:01:05;12.63;;;9.03;;
17614;SDS011;8926;49.720;6.576;2022-12-05T09:03:35;12.73;;;8.40;;
17614;SDS011;8926;49.720;6.576;2022-12-05T09:06:08;9.13;;;7.60;;
17614;SDS011;8926;49.720;6.576;2022-12-05T09:08:38;6.83;;;6.23;;
17614;SDS011;8926;49.720;6.576;2022-12-05T09:11:09;6.43;;;5.87;;
17614;SDS011;8926;49.720;6.576;2022-12-05T09:13:36;5.80;;;5.30;;
17614;SDS011;8926;49.720;6.576;2022-12-05T09:18:30;5.37;;;4.97;;
17614;SDS011;8926;49.720;6.576;2022-12-05T09:20:56;4.60;;;4.30;;
17614;SDS011;8926;49.720;6.576;2022-12-05T09:23:21;4.83;;;4.50;;
17614;SDS011;8926;49.720;6.576;2022-12-05T09:25:51;4.73;;;4.43;;
17614;SDS011;8926;49.720;6.576;2022-12-05T09:28:20;4.97;;;4.57;;
17614;SDS011;8926;49.720;6.576;2022-12-05T09:30:53;5.23;;;4.83;;
17614;SDS011;8926;49.720;6.576;2022-12-05T09:33:30;4.47;;;4.17;;
17614;SDS011;8926;49.720;6.576;2022-12-05T09:35:56;4.20;;;3.90;;
17614;SDS011;8926;49.720;6.576;2022-12-05T09:38:22;4.40;;;4.10;;
17614;SDS011;8926;49.720;6.576;2022-12-05T09:40:59;4.20;;;3.90;;
17614;SDS011;8926;49.720;6.576;2022-12-05T09:43:40;4.23;;;3.87;;
17614;SDS011;8926;49.720;6.576;2022-12-05T09:46:32;4.20;;;3.90;;
17614;SDS011;8926;49.720;6.576;2022-12-05T09:49:23;4.20;;;3.90;;
17614;SDS011;8926;49.720;6.576;2022-12-05T09:51:49;4.13;;;3.83;;
17614;SDS011;8926;49.720;6.576;2022-12-05T09:54:16;3.97;;;3.70;;
17614;SDS011;8926;49.720;6.576;2022-12-05T09:56:42;4.93;;;4.53;;
17614;SDS011;8926;49.720;6.576;2022-12-05T09:59:12;4.27;;;3.97;;
17614;SDS011;8926;49.720;6.576;2022-12-05T10:01:46;4.70;;;4.33;;
17614;SDS011;8926;49.720;6.576;2022-12-05T10:07:21;4.30;;;4.00;;
17614;SDS011;8926;49.720;6.576;2022-12-05T10:10:02;5.30;;;4.90;;
17614;SDS011;8926;49.720;6.576;2022-12-05T10:15:37;4.87;;;4.47;;
17614;SDS011;8926;49.720;6.576;2022-12-05T10:20:43;5.30;;;4.90;;
17614;SDS011;8926;49.720;6.576;2022-12-05T10:23:19;5.00;;;4.60;;
17614;SDS011;8926;49.720;6.576;2022-12-05T10:25:50;5.07;;;4.67;;
17614;SDS011;8926;49.720;6.576;2022-12-05T10:28:26;5.57;;;5.17;;
17614;SDS011;8926;49.720;6.576;2022-12-05T10:30:57;5.97;;;5.47;;
17614;SDS011;8926;49.720;6.576;2022-12-05T10:33:26;5.10;;;4.70;;
17614;SDS011;8926;49.720;6.576;2022-12-05T10:35:58;6.20;;;5.70;;
17614;SDS011;8926;49.720;6.576;2022-12-05T10:38:29;5.83;;;5.33;;
17614;SDS011;8926;49.720;6.576;2022-12-05T10:41:02;6.03;;;5.53;;
17614;SDS011;8926;49.720;6.576;2022-12-05T10:43:35;5.93;;;5.53;;
17614;SDS011;8926;49.720;6.576;2022-12-05T10:46:03;7.23;;;6.53;;
17614;SDS011;8926;49.720;6.576;2022-12-05T10:48:29;8.10;;;7.40;;
17614;SDS011;8926;49.720;6.576;2022-12-05T10:50:58;7.83;;;7.13;;
17614;SDS011;8926;49.720;6.576;2022-12-05T10:53:46;7.37;;;6.77;;
17614;SDS011;8926;49.720;6.576;2022-12-05T10:59:22;8.07;;;7.37;;
17614;SDS011;8926;49.720;6.576;2022-12-05T11:01:50;8.23;;;7.53;;
17614;SDS011;8926;49.720;6.576;2022-12-05T11:06:50;8.70;;;7.83;;
17614;SDS011;8926;49.720;6.576;2022-12-05T11:09:19;7.17;;;6.57;;
17614;SDS011;8926;49.720;6.576;2022-12-05T11:11:56;5.63;;;5.20;;
17614;SDS011;8926;49.720;6.576;2022-12-05T11:14:23;5.93;;;5.43;;
17614;SDS011;8926;49.720;6.576;2022-12-05T11:16:51;5.20;;;4.70;;
17614;SDS011;8926;49.720;6.576;2022-12-05T11:19:23;6.70;;;6.10;;
17614;SDS011;8926;49.720;6.576;2022-12-05T11:21:51;5.67;;;5.17;;
17614;SDS011;8926;49.720;6.576;2022-12-05T11:24:31;5.80;;;5.30;;
17614;SDS011;8926;49.720;6.576;2022-12-05T11:29:41;6.57;;;5.97;;
17614;SDS011;8926;49.720;6.576;2022-12-05T11:32:26;6.37;;;5.77;;
17614;SDS011;8926;49.720;6.576;2022-12-05T11:35:03;6.07;;;5.60;;
17614;SDS011;8926;49.720;6.576;2022-12-05T11:37:31;6.10;;;5.53;;
17614;SDS011;8926;49.720;6.576;2022-12-05T11:40:10;7.90;;;7.23;;
17614;SDS011;8926;49.720;6.576;2022-12-05T11:42:45;7.17;;;6.57;;
17614;SDS011;8926;49.720;6.576;2022-12-05T11:45:30;6.10;;;5.63;;
17614;SDS011;8926;49.720;6.576;2022-12-05T11:53:29;4.90;;;4.50;;
17614;SDS011;8926;49.720;6.576;2022-12-05T12:16:07;4.70;;;4.40;;
17614;SDS011;8926;49.720;6.576;2022-12-05T12:18:44;5.40;;;5.00;;
17614;SDS011;8926;49.720;6.576;2022-12-05T12:24:49;6.97;;;6.37;;
17614;SDS011;8926;49.720;6.576;2022-12-05T12:30:20;7.43;;;6.83;;
17614;SDS011;8926;49.720;6.576;2022-12-05T12:32:56;6.10;;;5.60;;
17614;SDS011;8926;49.720;6.576;2022-12-05T12:38:11;5.50;;;5.10;;
17614;SDS011;8926;49.720;6.576;2022-12-05T12:43:32;4.50;;;4.20;;
17614;SDS011;8926;49.720;6.576;2022-12-05T12:49:10;4.77;;;4.40;;
17614;SDS011;8926;49.720;6.576;2022-12-05T12:51:53;4.63;;;4.33;;
17614;SDS011;8926;49.720;6.576;2022-12-05T12:54:41;4.33;;;4.03;;
17614;SDS011;8926;49.720;6.576;2022-12-05T12:57:11;4.70;;;4.37;;
17614;SDS011;8926;49.720;6.576;2022-12-05T13:02:41;5.70;;;5.20;;
17614;SDS011;8926;49.720;6.576;2022-12-05T13:07:49;5.40;;;5.00;;
17614;SDS011;8926;49.720;6.576;2022-12-05T13:10:24;4.97;;;4.57;;
17614;SDS011;8926;49.720;6.576;2022-12-05T13:12:54;4.10;;;3.80;;
17614;SDS011;8926;49.720;6.576;2022-12-05T13:15:27;5.23;;;4.77;;
17614;SDS011;8926;49.720;6.576;2022-12-05T13:17:58;4.50;;;4.20;;
17614;SDS011;8926;49.720;6.576;2022-12-05T13:20:28;4.00;;;3.70;;
17614;SDS011;8926;49.720;6.576;2022-12-05T13:22:57;4.60;;;4.30;;
17614;SDS011;8926;49.720;6.576;2022-12-05T13:25:24;4.03;;;3.73;;
17614;SDS011;8926;49.720;6.576;2022-12-05T13:27:59;4.30;;;3.93;;
17614;SDS011;8926;49.720;6.576;2022-12-05T13:30:27;5.23;;;4.83;;
17614;SDS011;8926;49.720;6.576;2022-12-05T13:32:56;5.03;;;4.63;;
17614;SDS011;8926;49.720;6.576;2022-12-05T13:35:30;5.53;;;5.13;;
17614;SDS011;8926;49.720;6.576;2022-12-05T13:38:30;5.20;;;4.80;;
17614;SDS011;8926;49.720;6.576;2022-12-05T13:41:16;6.00;;;5.50;;
17614;SDS011;8926;49.720;6.576;2022-12-05T13:44:01;6.10;;;5.60;;
17614;SDS011;8926;49.720;6.576;2022-12-05T13:46:36;5.63;;;5.23;;
17614;SDS011;8926;49.720;6.576;2022-12-05T13:49:05;4.23;;;3.93;;
17614;SDS011;8926;49.720;6.576;2022-12-05T13:51:41;4.27;;;3.97;;
17614;SDS011;8926;49.720;6.576;2022-12-05T13:54:13;4.20;;;3.90;;
17614;SDS011;8926;49.720;6.576;2022-12-05T14:03:03;4.67;;;4.37;;
17614;SDS011;8926;49.720;6.576;2022-12-05T14:07:41;4.93;;;4.53;;
17614;SDS011;8926;49.720;6.576;2022-12-05T14:10:10;4.97;;;4.57;;
17614;SDS011;8926;49.720;6.576;2022-12-05T14:12:55;5.23;;;4.83;;
17614;SDS011;8926;49.720;6.576;2022-12-05T14:15:43;4.90;;;4.50;;
17614;SDS011;8926;49.720;6.576;2022-12-05T14:18:33;5.47;;;4.97;;
17614;SDS011;8926;49.720;6.576;2022-12-05T14:21:21;5.00;;;4.60;;
17614;SDS011;8926;49.720;6.576;2022-12-05T14:24:05;5.00;;;4.60;;
17614;SDS011;8926;49.720;6.576;2022-12-05T14:32:46;6.10;;;5.60;;
17614;SDS011;8926;49.720;6.576;2022-12-05T14:35:21;5.33;;;4.90;;
17614;SDS011;8926;49.720;6.576;2022-12-05T14:45:32;5.23;;;4.77;;
17614;SDS011;8926;49.720;6.576;2022-12-05T14:50:42;5.10;;;4.70;;
17614;SDS011;8926;49.720;6.576;2022-12-05T15:01:29;5.30;;;4.90;;
17614;SDS011;8926;49.720;6.576;2022-12-05T15:04:03;6.20;;;5.60;;
17614;SDS011;8926;49.720;6.576;2022-12-05T15:12:19;5.10;;;4.70;;
17614;SDS011;8926;49.720;6.576;2022-12-05T15:14:58;5.53;;;5.13;;
17614;SDS011;8926;49.720;6.576;2022-12-05T15:17:35;5.83;;;5.43;;
17614;SDS011;8926;49.720;6.576;2022-12-05T15:26:05;5.40;;;5.00;;
17614;SDS011;8926;49.720;6.576;2022-12-05T15:28:36;5.73;;;5.27;;
17614;SDS011;8926;49.720;6.576;2022-12-05T15:31:01;6.53;;;5.93;;
17614;SDS011;8926;49.720;6.576;2022-12-05T15:33:28;5.27;;;4.87;;
17614;SDS011;8926;49.720;6.576;2022-12-05T15:35:54;4.73;;;4.43;;
17614;SDS011;8926;49.720;6.576;2022-12-05T15:38:24;4.47;;;4.07;;
17614;SDS011;8926;49.720;6.576;2022-12-05T15:40:52;5.80;;;5.40;;
17614;SDS011;8926;49.720;6.576;2022-12-05T15:43:31;5.23;;;4.83;;
17614;SDS011;8926;49.720;6.576;2022-12-05T15:48:47;4.40;;;4.10;;
17614;SDS011;8926;49.720;6.576;2022-12-05T15:51:13;4.13;;;3.83;;
17614;SDS011;8926;49.720;6.576;2022-12-05T15:53:39;4.77;;;4.37;;
17614;SDS011;8926;49.720;6.576;2022-12-05T15:56:16;4.20;;;3.90;;
17614;SDS011;8926;49.720;6.576;2022-12-05T15:58:57;4.30;;;4.00;;
17614;SDS011;8926;49.720;6.576;2022-12-05T16:01:43;5.00;;;4.60;;
17614;SDS011;8926;49.720;6.576;2022-12-05T16:04:20;4.00;;;3.70;;
17614;SDS011;8926;49.720;6.576;2022-12-05T16:07:06;4.17;;;3.87;;
17614;SDS011;8926;49.720;6.576;2022-12-05T16:09:34;5.00;;;4.60;;
17614;SDS011;8926;49.720;6.576;2022-12-05T16:12:04;4.03;;;3.73;;
17614;SDS011;8926;49.720;6.576;2022-12-05T16:14:40;4.53;;;4.13;;
17614;SDS011;8926;49.720;6.576;2022-12-05T16:17:07;4.10;;;3.80;;
17614;SDS011;8926;49.720;6.576;2022-12-05T16:19:39;3.70;;;3.40;;
17614;SDS011;8926;49.720;6.576;2022-12-05T16:22:06;3.57;;;3.27;;
17614;SDS011;8926;49.720;6.576;2022-12-05T16:24:37;3.40;;;3.20;;
17614;SDS011;8926;49.720;6.576;2022-12-05T16:27:20;2.87;;;2.73;;
17614;SDS011;8926;49.720;6.576;2022-12-05T16:30:04;3.60;;;3.33;;
17614;SDS011;8926;49.720;6.576;2022-12-05T16:32:31;4.17;;;3.87;;
17614;SDS011;8926;49.720;6.576;2022-12-05T16:34:58;4.47;;;4.07;;
17614;SDS011;8926;49.720;6.576;2022-12-05T16:37:26;3.50;;;3.20;;
17614;SDS011;8926;49.720;6.576;2022-12-05T16:39:53;4.90;;;4.50;;
17614;SDS011;8926;49.720;6.576;2022-12-05T16:42:23;5.13;;;4.73;;
17614;SDS011;8926;49.720;6.576;2022-12-05T16:44:59;5.33;;;4.83;;
17614;SDS011;8926;49.720;6.576;2022-12-05T16:50:28;5.87;;;5.30;;
17614;SDS011;8926;49.720;6.576;2022-12-05T16:52:50;6.07;;;5.57;;
17614;SDS011;8926;49.720;6.576;2022-12-05T16:55:44;7.17;;;6.57;;
17614;SDS011;8926;49.720;6.576;2022-12-05T16:58:20;7.67;;;6.97;;
17614;SDS011;8926;49.720;6.576;2022-12-05T17:00:48;9.77;;;8.00;;
17614;SDS011;8926;49.720;6.576;2022-12-05T17:03:13;7.50;;;6.80;;
17614;SDS011;8926;49.720;6.576;2022-12-05T17:05:39;6.40;;;5.80;;
17614;SDS011;8926;49.720;6.576;2022-12-05T17:08:05;5.27;;;4.87;;
17614;SDS011;8926;49.720;6.576;2022-12-05T17:10:30;5.97;;;5.47;;
17614;SDS011;8926;49.720;6.576;2022-12-05T17:12:56;6.43;;;5.93;;
17614;SDS011;8926;49.720;6.576;2022-12-05T17:15:24;5.17;;;4.77;;
17614;SDS011;8926;49.720;6.576;2022-12-05T17:17:50;4.90;;;4.50;;
17614;SDS011;8926;49.720;6.576;2022-12-05T17:20:15;5.97;;;5.43;;
17614;SDS011;8926;49.720;6.576;2022-12-05T17:22:41;4.97;;;4.60;;
17614;SDS011;8926;49.720;6.576;2022-12-05T17:25:27;5.53;;;5.13;;
17614;SDS011;8926;49.720;6.576;2022-12-05T17:27:55;5.03;;;4.63;;
17614;SDS011;8926;49.720;6.576;2022-12-05T17:30:21;4.97;;;4.67;;
17614;SDS011;8926;49.720;6.576;2022-12-05T17:32:47;4.60;;;4.20;;
17614;SDS011;8926;49.720;6.576;2022-12-05T17:35:14;4.57;;;4.27;;
17614;SDS011;8926;49.720;6.576;2022-12-05T17:37:40;5.57;;;5.17;;
17614;SDS011;8926;49.720;6.576;2022-12-05T17:40:06;5.80;;;5.30;;
17614;SDS011;8926;49.720;6.576;2022-12-05T17:42:31;5.83;;;5.37;;
17614;SDS011;8926;49.720;6.576;2022-12-05T17:45:00;4.40;;;4.10;;
17614;SDS011;8926;49.720;6.576;2022-12-05T17:47:25;4.30;;;4.00;;
17614;SDS011;8926;49.720;6.576;2022-12-05T17:49:50;4.40;;;4.10;;
17614;SDS011;8926;49.720;6.576;2022-12-05T17:52:16;4.53;;;4.13;;
17614;SDS011;8926;49.720;6.576;2022-12-05T17:54:41;4.43;;;4.07;;
17614;SDS011;8926;49.720;6.576;2022-12-05T17:57:06;4.63;;;4.23;;